sensor_id;sensor_type;location;lat;lon;timestamp;P1;durP1;ratioP1;P2;durP2;ratioP2
44048;SDS011;29717;47.028;15.470;2023-03-14T00:01:00;17.00;;;12.73;;
44048;SDS011;29717;47.028;15.470;2023-03-14T00:03:29;19.23;;;13.67;;
44048;SDS011;29717;47.028;15.470;2023-03-14T00:05:56;18.27;;;12.67;;
44048;SDS011;29717;47.028;15.470;2023-03-14T00:08:23;17.10;;;12.57;;
44048;SDS011;29717;47.028;15.470;2023-03-14T00:10:52;19.53;;;12.63;;
44048;SDS011;29717;47.028;15.470;2023-03-14T00:13:20;21.27;;;13.43;;
44048;SDS011;29717;47.028;15.470;2023-03-14T00:15:47;17.00;;;13.03;;
44048;SDS011;29717;47.028;15.470;2023-03-14T00:18:14;20.67;;;13.70;;
44048;SDS011;29717;47.028;15.470;2023-03-14T00:20:43;16.77;;;13.07;;
44048;SDS011;29717;47.028;15.470;2023-03-14T00:23:10;21.50;;;13.30;;
44048;SDS011;29717;47.028;15.470;2023-03-14T00:25:37;18.30;;;12.90;;
44048;SDS011;29717;47.028;15.470;2023-03-14T00:28:04;19.13;;;12.37;;
44048;SDS011;29717;47.028;15.470;2023-03-14T00:30:31;16.23;;;12.47;;
44048;SDS011;29717;47.028;15.470;2023-03-14T00:32:58;17.93;;;11.70;;
44048;SDS011;29717;47.028;15.470;2023-03-14T00:35:25;16.33;;;11.90;;
44048;SDS011;29717;47.028;15.470;2023-03-14T00:37:53;17.30;;;12.47;;
44048;SDS011;29717;47.028;15.470;2023-03-14T00:40:20;21.10;;;13.00;;
44048;SDS011;29717;47.028;15.470;2023-03-14T00:42:47;17.03;;;11.73;;
44048;SDS011;29717;47.028;15.470;2023-03-14T00:45:14;15.47;;;10.67;;
44048;SDS011;29717;47.028;15.470;2023-03-14T00:47:41;13.70;;;10.43;;
44048;SDS011;29717;47.028;15.470;2023-03-14T00:50:10;15.57;;;10.13;;
44048;SDS011;29717;47.028;15.470;2023-03-14T00:52:37;17.13;;;10.63;;
44048;SDS011;29717;47.028;15.470;2023-03-14T00:55:07;15.37;;;9.73;;
44048;SDS011;29717;47.028;15.470;2023-03-14T00:57:34;16.10;;;10.37;;
44048;SDS011;29717;47.028;15.470;2023-03-14T01:00:01;15.27;;;10.43;;
44048;SDS011;29717;47.028;15.470;2023-03-14T01:02:31;17.87;;;10.70;;
44048;SDS011;29717;47.028;15.470;2023-03-14T01:04:57;15.30;;;9.63;;
44048;SDS011;29717;47.028;15.470;2023-03-14T01:07:24;14.53;;;9.87;;
44048;SDS011;29717;47.028;15.470;2023-03-14T01:09:52;10.73;;;9.40;;
44048;SDS011;29717;47.028;15.470;2023-03-14T01:12:20;14.93;;;10.03;;
44048;SDS011;29717;47.028;15.470;2023-03-14T01:14:47;13.23;;;9.33;;
44048;SDS011;29717;47.028;15.470;2023-03-14T01:17:13;15.23;;;9.53;;
44048;SDS011;29717;47.028;15.470;2023-03-14T01:19:40;14.60;;;9.60;;
44048;SDS011;29717;47.028;15.470;2023-03-14T01:22:07;12.43;;;8.53;;
44048;SDS011;29717;47.028;15.470;2023-03-14T01:24:33;12.90;;;8.30;;
44048;SDS011;29717;47.028;15.470;2023-03-14T01:27:01;12.40;;;8.60;;
44048;SDS011;29717;47.028;15.470;2023-03-14T01:29:30;10.30;;;8.10;;
44048;SDS011;29717;47.028;15.470;2023-03-14T01:31:57;12.53;;;8.53;;
44048;SDS011;29717;47.028;15.470;2023-03-14T01:34:25;10.93;;;7.50;;
44048;SDS011;29717;47.028;15.470;2023-03-14T01:36:52;9.40;;;7.60;;
44048;SDS011;29717;47.028;15.470;2023-03-14T01:39:18;8.73;;;7.07;;
44048;SDS011;29717;47.028;15.470;2023-03-14T01:41:45;11.17;;;7.07;;
44048;SDS011;29717;47.028;15.470;2023-03-14T01:44:12;11.97;;;6.97;;
44048;SDS011;29717;47.028;15.470;2023-03-14T01:46:41;8.73;;;6.50;;
44048;SDS011;29717;47.028;15.470;2023-03-14T01:49:22;9.43;;;6.60;;
44048;SDS011;29717;47.028;15.470;2023-03-14T01:51:52;9.37;;;6.97;;
44048;SDS011;29717;47.028;15.470;2023-03-14T01:54:22;9.57;;;6.93;;
44048;SDS011;29717;47.028;15.470;2023-03-14T01:56:51;10.97;;;6.60;;
44048;SDS011;29717;47.028;15.470;2023-03-14T01:59:19;10.63;;;7.37;;
44048;SDS011;29717;47.028;15.470;2023-03-14T02:01:48;10.07;;;7.00;;
44048;SDS011;29717;47.028;15.470;2023-03-14T02:04:16;11.33;;;6.97;;
44048;SDS011;29717;47.028;15.470;2023-03-14T02:06:49;8.50;;;6.47;;
44048;SDS011;29717;47.028;15.470;2023-03-14T02:09:17;9.17;;;6.77;;
44048;SDS011;29717;47.028;15.470;2023-03-14T02:11:44;8.07;;;6.57;;
44048;SDS011;29717;47.028;15.470;2023-03-14T02:14:14;11.17;;;7.03;;
44048;SDS011;29717;47.028;15.470;2023-03-14T02:16:44;9.77;;;6.70;;
44048;SDS011;29717;47.028;15.470;2023-03-14T02:19:12;10.30;;;6.90;;
44048;SDS011;29717;47.028;15.470;2023-03-14T02:21:44;11.60;;;6.63;;
44048;SDS011;29717;47.028;15.470;2023-03-14T02:24:17;12.23;;;7.43;;
44048;SDS011;29717;47.028;15.470;2023-03-14T02:29:47;13.57;;;7.30;;
44048;SDS011;29717;47.028;15.470;2023-03-14T02:32:15;10.47;;;6.83;;
44048;SDS011;29717;47.028;15.470;2023-03-14T02:34:43;11.77;;;7.60;;
44048;SDS011;29717;47.028;15.470;2023-03-14T02:37:12;15.27;;;7.53;;
44048;SDS011;29717;47.028;15.470;2023-03-14T02:39:41;12.33;;;7.10;;
44048;SDS011;29717;47.028;15.470;2023-03-14T02:42:09;8.97;;;6.70;;
44048;SDS011;29717;47.028;15.470;2023-03-14T02:44:45;12.10;;;7.67;;
44048;SDS011;29717;47.028;15.470;2023-03-14T02:47:14;9.67;;;6.37;;
44048;SDS011;29717;47.028;15.470;2023-03-14T02:49:40;7.77;;;6.97;;
44048;SDS011;29717;47.028;15.470;2023-03-14T02:52:08;9.40;;;6.77;;
44048;SDS011;29717;47.028;15.470;2023-03-14T02:54:34;8.37;;;6.43;;
44048;SDS011;29717;47.028;15.470;2023-03-14T02:57:02;7.27;;;5.53;;
44048;SDS011;29717;47.028;15.470;2023-03-14T02:59:29;9.30;;;5.87;;
44048;SDS011;29717;47.028;15.470;2023-03-14T03:01:56;9.50;;;6.00;;
44048;SDS011;29717;47.028;15.470;2023-03-14T03:04:24;8.13;;;6.50;;
44048;SDS011;29717;47.028;15.470;2023-03-14T03:06:51;7.67;;;5.83;;
44048;SDS011;29717;47.028;15.470;2023-03-14T03:09:18;9.10;;;5.93;;
44048;SDS011;29717;47.028;15.470;2023-03-14T03:11:44;6.10;;;5.33;;
44048;SDS011;29717;47.028;15.470;2023-03-14T03:14:11;11.13;;;6.17;;
44048;SDS011;29717;47.028;15.470;2023-03-14T03:16:38;8.33;;;5.87;;
44048;SDS011;29717;47.028;15.470;2023-03-14T03:19:05;7.50;;;5.33;;
44048;SDS011;29717;47.028;15.470;2023-03-14T03:21:33;8.80;;;5.43;;
44048;SDS011;29717;47.028;15.470;2023-03-14T03:24:00;7.13;;;5.33;;
44048;SDS011;29717;47.028;15.470;2023-03-14T03:26:27;7.20;;;5.30;;
44048;SDS011;29717;47.028;15.470;2023-03-14T03:28:54;7.87;;;5.67;;
44048;SDS011;29717;47.028;15.470;2023-03-14T03:31:20;8.10;;;5.70;;
44048;SDS011;29717;47.028;15.470;2023-03-14T03:33:47;9.07;;;6.10;;
44048;SDS011;29717;47.028;15.470;2023-03-14T03:36:14;7.13;;;5.30;;
44048;SDS011;29717;47.028;15.470;2023-03-14T03:38:42;8.70;;;6.07;;
44048;SDS011;29717;47.028;15.470;2023-03-14T03:41:09;7.67;;;5.53;;
44048;SDS011;29717;47.028;15.470;2023-03-14T03:43:36;9.03;;;5.50;;
44048;SDS011;29717;47.028;15.470;2023-03-14T03:46:03;8.63;;;5.67;;
44048;SDS011;29717;47.028;15.470;2023-03-14T03:48:30;9.30;;;5.67;;
44048;SDS011;29717;47.028;15.470;2023-03-14T03:50:57;6.93;;;5.10;;
44048;SDS011;29717;47.028;15.470;2023-03-14T03:53:24;7.97;;;5.70;;
44048;SDS011;29717;47.028;15.470;2023-03-14T03:55:53;7.07;;;5.40;;
44048;SDS011;29717;47.028;15.470;2023-03-14T03:58:19;8.93;;;6.13;;
44048;SDS011;29717;47.028;15.470;2023-03-14T04:00:46;13.33;;;7.23;;
44048;SDS011;29717;47.028;15.470;2023-03-14T04:03:13;11.23;;;6.77;;
44048;SDS011;29717;47.028;15.470;2023-03-14T04:05:42;10.13;;;6.57;;
44048;SDS011;29717;47.028;15.470;2023-03-14T04:08:09;11.13;;;7.47;;
44048;SDS011;29717;47.028;15.470;2023-03-14T04:10:36;11.37;;;7.73;;
44048;SDS011;29717;47.028;15.470;2023-03-14T04:13:04;15.27;;;9.00;;
44048;SDS011;29717;47.028;15.470;2023-03-14T04:15:31;12.23;;;9.10;;
44048;SDS011;29717;47.028;15.470;2023-03-14T04:17:58;15.00;;;9.80;;
44048;SDS011;29717;47.028;15.470;2023-03-14T04:20:25;12.07;;;8.30;;
44048;SDS011;29717;47.028;15.470;2023-03-14T04:22:52;9.23;;;7.50;;
44048;SDS011;29717;47.028;15.470;2023-03-14T04:25:18;9.47;;;7.13;;
44048;SDS011;29717;47.028;15.470;2023-03-14T04:27:46;11.47;;;6.20;;
44048;SDS011;29717;47.028;15.470;2023-03-14T04:30:14;9.37;;;6.90;;
44048;SDS011;29717;47.028;15.470;2023-03-14T04:32:41;9.87;;;5.80;;
44048;SDS011;29717;47.028;15.470;2023-03-14T04:35:08;11.53;;;6.67;;
44048;SDS011;29717;47.028;15.470;2023-03-14T04:37:35;10.27;;;6.10;;
44048;SDS011;29717;47.028;15.470;2023-03-14T04:40:02;9.67;;;5.57;;
44048;SDS011;29717;47.028;15.470;2023-03-14T04:42:31;6.00;;;4.67;;
44048;SDS011;29717;47.028;15.470;2023-03-14T04:44:58;9.80;;;5.20;;
44048;SDS011;29717;47.028;15.470;2023-03-14T04:47:27;9.17;;;5.63;;
44048;SDS011;29717;47.028;15.470;2023-03-14T04:49:54;7.97;;;4.53;;
44048;SDS011;29717;47.028;15.470;2023-03-14T04:52:21;7.67;;;5.03;;
44048;SDS011;29717;47.028;15.470;2023-03-14T04:54:47;6.30;;;4.33;;
44048;SDS011;29717;47.028;15.470;2023-03-14T04:57:14;7.77;;;4.97;;
44048;SDS011;29717;47.028;15.470;2023-03-14T04:59:41;6.97;;;4.90;;
44048;SDS011;29717;47.028;15.470;2023-03-14T05:02:08;8.37;;;4.73;;
44048;SDS011;29717;47.028;15.470;2023-03-14T05:04:36;9.40;;;4.90;;
44048;SDS011;29717;47.028;15.470;2023-03-14T05:07:03;5.60;;;4.57;;
44048;SDS011;29717;47.028;15.470;2023-03-14T05:09:30;5.77;;;3.90;;
44048;SDS011;29717;47.028;15.470;2023-03-14T05:11:57;8.17;;;4.83;;
44048;SDS011;29717;47.028;15.470;2023-03-14T05:14:23;6.87;;;4.93;;
44048;SDS011;29717;47.028;15.470;2023-03-14T05:16:50;8.27;;;4.50;;
44048;SDS011;29717;47.028;15.470;2023-03-14T05:19:17;6.73;;;4.70;;
44048;SDS011;29717;47.028;15.470;2023-03-14T05:21:45;8.23;;;6.10;;
44048;SDS011;29717;47.028;15.470;2023-03-14T05:24:12;8.17;;;6.23;;
44048;SDS011;29717;47.028;15.470;2023-03-14T05:26:39;9.37;;;6.37;;
44048;SDS011;29717;47.028;15.470;2023-03-14T05:29:06;11.17;;;5.90;;
44048;SDS011;29717;47.028;15.470;2023-03-14T05:31:32;11.37;;;5.63;;
44048;SDS011;29717;47.028;15.470;2023-03-14T05:33:59;7.40;;;5.50;;
44048;SDS011;29717;47.028;15.470;2023-03-14T05:36:26;7.37;;;4.67;;
44048;SDS011;29717;47.028;15.470;2023-03-14T05:38:54;8.57;;;4.87;;
44048;SDS011;29717;47.028;15.470;2023-03-14T05:41:21;6.03;;;4.50;;
44048;SDS011;29717;47.028;15.470;2023-03-14T05:43:48;9.63;;;5.40;;
44048;SDS011;29717;47.028;15.470;2023-03-14T05:46:15;12.93;;;6.13;;
44048;SDS011;29717;47.028;15.470;2023-03-14T05:48:41;7.90;;;5.70;;
44048;SDS011;29717;47.028;15.470;2023-03-14T05:51:08;8.87;;;5.97;;
44048;SDS011;29717;47.028;15.470;2023-03-14T05:53:35;8.13;;;5.00;;
44048;SDS011;29717;47.028;15.470;2023-03-14T05:56:04;9.57;;;5.00;;
44048;SDS011;29717;47.028;15.470;2023-03-14T05:58:31;10.67;;;5.23;;
44048;SDS011;29717;47.028;15.470;2023-03-14T06:00:57;13.67;;;4.93;;
44048;SDS011;29717;47.028;15.470;2023-03-14T06:03:24;10.53;;;4.60;;
44048;SDS011;29717;47.028;15.470;2023-03-14T06:05:51;8.37;;;4.70;;
44048;SDS011;29717;47.028;15.470;2023-03-14T06:08:18;7.67;;;4.93;;
44048;SDS011;29717;47.028;15.470;2023-03-14T06:10:45;8.13;;;5.00;;
44048;SDS011;29717;47.028;15.470;2023-03-14T06:13:13;9.10;;;5.03;;
44048;SDS011;29717;47.028;15.470;2023-03-14T06:15:41;12.30;;;4.80;;
44048;SDS011;29717;47.028;15.470;2023-03-14T06:18:07;9.40;;;4.70;;
44048;SDS011;29717;47.028;15.470;2023-03-14T06:20:35;8.03;;;4.80;;
44048;SDS011;29717;47.028;15.470;2023-03-14T06:23:04;9.93;;;5.97;;
44048;SDS011;29717;47.028;15.470;2023-03-14T06:25:31;10.67;;;6.10;;
44048;SDS011;29717;47.028;15.470;2023-03-14T06:27:58;10.80;;;6.93;;
44048;SDS011;29717;47.028;15.470;2023-03-14T06:30:26;8.27;;;6.37;;
44048;SDS011;29717;47.028;15.470;2023-03-14T06:32:53;11.60;;;6.83;;
44048;SDS011;29717;47.028;15.470;2023-03-14T06:35:20;9.77;;;6.87;;
44048;SDS011;29717;47.028;15.470;2023-03-14T06:37:48;12.57;;;7.40;;
44048;SDS011;29717;47.028;15.470;2023-03-14T06:40:15;12.30;;;7.30;;
44048;SDS011;29717;47.028;15.470;2023-03-14T06:42:43;12.13;;;6.60;;
44048;SDS011;29717;47.028;15.470;2023-03-14T06:45:10;12.03;;;7.30;;
44048;SDS011;29717;47.028;15.470;2023-03-14T06:47:39;12.43;;;6.97;;
44048;SDS011;29717;47.028;15.470;2023-03-14T06:50:06;10.03;;;6.13;;
44048;SDS011;29717;47.028;15.470;2023-03-14T06:52:33;9.47;;;5.53;;
44048;SDS011;29717;47.028;15.470;2023-03-14T06:55:00;13.05;;;6.35;;
44048;SDS011;29717;47.028;15.470;2023-03-14T06:57:27;9.27;;;4.90;;
44048;SDS011;29717;47.028;15.470;2023-03-14T06:59:54;9.45;;;5.25;;
44048;SDS011;29717;47.028;15.470;2023-03-14T07:02:21;6.95;;;3.78;;
44048;SDS011;29717;47.028;15.470;2023-03-14T07:04:50;6.07;;;3.92;;
44048;SDS011;29717;47.028;15.470;2023-03-14T07:07:17;6.60;;;3.35;;
44048;SDS011;29717;47.028;15.470;2023-03-14T07:09:43;5.10;;;3.20;;
44048;SDS011;29717;47.028;15.470;2023-03-14T07:12:10;6.35;;;3.53;;
44048;SDS011;29717;47.028;15.470;2023-03-14T07:14:37;6.40;;;3.08;;
44048;SDS011;29717;47.028;15.470;2023-03-14T07:17:04;5.03;;;2.90;;
44048;SDS011;29717;47.028;15.470;2023-03-14T07:19:31;7.47;;;2.88;;
44048;SDS011;29717;47.028;15.470;2023-03-14T07:21:59;5.32;;;2.92;;
44048;SDS011;29717;47.028;15.470;2023-03-14T07:24:26;6.32;;;2.63;;
44048;SDS011;29717;47.028;15.470;2023-03-14T07:26:53;7.05;;;3.10;;
44048;SDS011;29717;47.028;15.470;2023-03-14T07:29:22;8.82;;;2.35;;
44048;SDS011;29717;47.028;15.470;2023-03-14T07:31:48;5.78;;;2.55;;
44048;SDS011;29717;47.028;15.470;2023-03-14T07:34:15;6.07;;;2.78;;
44048;SDS011;29717;47.028;15.470;2023-03-14T07:36:42;6.20;;;2.60;;
44048;SDS011;29717;47.028;15.470;2023-03-14T07:39:10;4.07;;;2.30;;
44048;SDS011;29717;47.028;15.470;2023-03-14T07:41:37;6.25;;;2.88;;
44048;SDS011;29717;47.028;15.470;2023-03-14T07:44:04;5.25;;;2.80;;
44048;SDS011;29717;47.028;15.470;2023-03-14T07:46:31;5.00;;;2.20;;
44048;SDS011;29717;47.028;15.470;2023-03-14T07:48:57;5.55;;;2.17;;
44048;SDS011;29717;47.028;15.470;2023-03-14T07:51:24;4.53;;;2.13;;
44048;SDS011;29717;47.028;15.470;2023-03-14T07:53:51;4.55;;;2.22;;
44048;SDS011;29717;47.028;15.470;2023-03-14T07:56:19;3.33;;;2.50;;
44048;SDS011;29717;47.028;15.470;2023-03-14T07:58:46;4.60;;;4.10;;
44048;SDS011;29717;47.028;15.470;2023-03-14T08:01:13;7.00;;;2.60;;
44048;SDS011;29717;47.028;15.470;2023-03-14T08:03:40;4.75;;;2.30;;
44048;SDS011;29717;47.028;15.470;2023-03-14T08:06:07;7.60;;;2.50;;
44048;SDS011;29717;47.028;15.470;2023-03-14T08:08:34;5.65;;;2.47;;
44048;SDS011;29717;47.028;15.470;2023-03-14T08:11:04;4.57;;;2.25;;
44048;SDS011;29717;47.028;15.470;2023-03-14T08:13:32;5.78;;;2.10;;
44048;SDS011;29717;47.028;15.470;2023-03-14T08:15:59;5.97;;;2.13;;
44048;SDS011;29717;47.028;15.470;2023-03-14T08:18:26;5.03;;;1.70;;
44048;SDS011;29717;47.028;15.470;2023-03-14T08:20:53;6.07;;;1.58;;
44048;SDS011;29717;47.028;15.470;2023-03-14T08:23:20;2.45;;;1.35;;
44048;SDS011;29717;47.028;15.470;2023-03-14T08:25:48;3.75;;;1.80;;
44048;SDS011;29717;47.028;15.470;2023-03-14T08:28:15;2.65;;;1.70;;
44048;SDS011;29717;47.028;15.470;2023-03-14T08:30:43;7.35;;;1.77;;
44048;SDS011;29717;47.028;15.470;2023-03-14T08:33:11;4.90;;;2.22;;
44048;SDS011;29717;47.028;15.470;2023-03-14T08:35:38;5.35;;;1.70;;
44048;SDS011;29717;47.028;15.470;2023-03-14T08:38:04;4.03;;;1.83;;
44048;SDS011;29717;47.028;15.470;2023-03-14T08:40:31;4.85;;;1.65;;
44048;SDS011;29717;47.028;15.470;2023-03-14T08:42:58;5.45;;;1.50;;
44048;SDS011;29717;47.028;15.470;2023-03-14T08:45:25;3.95;;;2.00;;
44048;SDS011;29717;47.028;15.470;2023-03-14T08:47:54;5.38;;;2.08;;
44048;SDS011;29717;47.028;15.470;2023-03-14T08:50:20;6.00;;;1.90;;
44048;SDS011;29717;47.028;15.470;2023-03-14T08:52:48;2.45;;;1.38;;
44048;SDS011;29717;47.028;15.470;2023-03-14T08:55:15;4.47;;;1.48;;
44048;SDS011;29717;47.028;15.470;2023-03-14T08:57:42;3.53;;;1.20;;
44048;SDS011;29717;47.028;15.470;2023-03-14T09:00:09;4.78;;;1.95;;
44048;SDS011;29717;47.028;15.470;2023-03-14T09:02:37;2.85;;;1.40;;
44048;SDS011;29717;47.028;15.470;2023-03-14T09:05:06;2.90;;;1.50;;
44048;SDS011;29717;47.028;15.470;2023-03-14T09:07:33;6.70;;;1.50;;
44048;SDS011;29717;47.028;15.470;2023-03-14T09:10:00;1.38;;;1.17;;
44048;SDS011;29717;47.028;15.470;2023-03-14T09:12:27;2.58;;;1.33;;
44048;SDS011;29717;47.028;15.470;2023-03-14T09:14:53;3.55;;;1.67;;
44048;SDS011;29717;47.028;15.470;2023-03-14T09:17:20;3.50;;;1.38;;
44048;SDS011;29717;47.028;15.470;2023-03-14T09:19:47;3.15;;;1.65;;
44048;SDS011;29717;47.028;15.470;2023-03-14T09:22:15;5.22;;;2.05;;
44048;SDS011;29717;47.028;15.470;2023-03-14T09:24:42;4.47;;;1.73;;
44048;SDS011;29717;47.028;15.470;2023-03-14T09:27:09;4.95;;;1.95;;
44048;SDS011;29717;47.028;15.470;2023-03-14T09:29:37;5.68;;;1.38;;
44048;SDS011;29717;47.028;15.470;2023-03-14T09:32:03;5.75;;;1.58;;
44048;SDS011;29717;47.028;15.470;2023-03-14T09:34:30;4.32;;;1.70;;
44048;SDS011;29717;47.028;15.470;2023-03-14T09:36:57;5.93;;;1.60;;
44048;SDS011;29717;47.028;15.470;2023-03-14T09:39:25;4.40;;;1.52;;
44048;SDS011;29717;47.028;15.470;2023-03-14T09:41:52;5.30;;;1.70;;
44048;SDS011;29717;47.028;15.470;2023-03-14T09:44:21;3.70;;;1.55;;
44048;SDS011;29717;47.028;15.470;2023-03-14T09:46:51;3.33;;;1.27;;
44048;SDS011;29717;47.028;15.470;2023-03-14T09:49:19;3.35;;;1.50;;
44048;SDS011;29717;47.028;15.470;2023-03-14T09:51:47;2.65;;;1.60;;
44048;SDS011;29717;47.028;15.470;2023-03-14T09:54:18;4.45;;;1.95;;
44048;SDS011;29717;47.028;15.470;2023-03-14T09:56:51;8.30;;;2.10;;
44048;SDS011;29717;47.028;15.470;2023-03-14T09:59:18;6.97;;;2.20;;
44048;SDS011;29717;47.028;15.470;2023-03-14T10:01:45;2.25;;;1.42;;
44048;SDS011;29717;47.028;15.470;2023-03-14T10:04:12;7.15;;;2.00;;
44048;SDS011;29717;47.028;15.470;2023-03-14T10:06:41;4.68;;;1.55;;
44048;SDS011;29717;47.028;15.470;2023-03-14T10:09:08;6.35;;;1.48;;
44048;SDS011;29717;47.028;15.470;2023-03-14T10:11:35;4.97;;;2.00;;
44048;SDS011;29717;47.028;15.470;2023-03-14T10:14:04;3.58;;;1.80;;
44048;SDS011;29717;47.028;15.470;2023-03-14T10:16:32;4.43;;;1.63;;
44048;SDS011;29717;47.028;15.470;2023-03-14T10:19:02;4.38;;;1.80;;
44048;SDS011;29717;47.028;15.470;2023-03-14T10:21:30;4.03;;;1.50;;
44048;SDS011;29717;47.028;15.470;2023-03-14T10:24:07;3.20;;;1.23;;
44048;SDS011;29717;47.028;15.470;2023-03-14T10:26:34;3.05;;;1.25;;
44048;SDS011;29717;47.028;15.470;2023-03-14T10:29:02;5.65;;;1.27;;
44048;SDS011;29717;47.028;15.470;2023-03-14T10:31:31;4.90;;;1.50;;
44048;SDS011;29717;47.028;15.470;2023-03-14T10:34:14;4.28;;;1.45;;
44048;SDS011;29717;47.028;15.470;2023-03-14T10:36:42;4.45;;;1.40;;
44048;SDS011;29717;47.028;15.470;2023-03-14T10:39:25;2.22;;;1.38;;
44048;SDS011;29717;47.028;15.470;2023-03-14T10:41:53;4.03;;;1.35;;
44048;SDS011;29717;47.028;15.470;2023-03-14T10:44:23;5.40;;;1.55;;
44048;SDS011;29717;47.028;15.470;2023-03-14T10:46:58;6.45;;;1.60;;
44048;SDS011;29717;47.028;15.470;2023-03-14T10:49:26;7.85;;;1.98;;
44048;SDS011;29717;47.028;15.470;2023-03-14T10:51:53;11.52;;;2.00;;
44048;SDS011;29717;47.028;15.470;2023-03-14T10:54:21;3.95;;;1.95;;
44048;SDS011;29717;47.028;15.470;2023-03-14T10:56:55;2.72;;;1.48;;
44048;SDS011;29717;47.028;15.470;2023-03-14T10:59:22;5.10;;;1.00;;
44048;SDS011;29717;47.028;15.470;2023-03-14T11:01:53;0.98;;;0.45;;
44048;SDS011;29717;47.028;15.470;2023-03-14T11:04:36;1.17;;;0.60;;
44048;SDS011;29717;47.028;15.470;2023-03-14T11:07:08;0.98;;;0.70;;
44048;SDS011;29717;47.028;15.470;2023-03-14T11:09:37;1.98;;;0.40;;
44048;SDS011;29717;47.028;15.470;2023-03-14T11:12:11;0.60;;;0.60;;
44048;SDS011;29717;47.028;15.470;2023-03-14T11:14:41;0.90;;;0.50;;
44048;SDS011;29717;47.028;15.470;2023-03-14T11:17:11;0.40;;;0.40;;
44048;SDS011;29717;47.028;15.470;2023-03-14T11:19:49;0.45;;;0.35;;
44048;SDS011;29717;47.028;15.470;2023-03-14T11:22:20;0.40;;;0.40;;
44048;SDS011;29717;47.028;15.470;2023-03-14T11:24:55;1.60;;;0.50;;
44048;SDS011;29717;47.028;15.470;2023-03-14T11:27:25;3.65;;;1.70;;
44048;SDS011;29717;47.028;15.470;2023-03-14T11:29:55;7.53;;;0.60;;
44048;SDS011;29717;47.028;15.470;2023-03-14T11:32:36;0.65;;;0.40;;
44048;SDS011;29717;47.028;15.470;2023-03-14T11:35:07;0.98;;;0.40;;
44048;SDS011;29717;47.028;15.470;2023-03-14T11:37:40;2.88;;;0.52;;
44048;SDS011;29717;47.028;15.470;2023-03-14T11:40:12;1.80;;;0.50;;
44048;SDS011;29717;47.028;15.470;2023-03-14T11:42:40;5.07;;;0.60;;
44048;SDS011;29717;47.028;15.470;2023-03-14T11:45:11;5.60;;;0.88;;
44048;SDS011;29717;47.028;15.470;2023-03-14T11:47:40;6.60;;;0.80;;
44048;SDS011;29717;47.028;15.470;2023-03-14T11:50:12;3.30;;;0.60;;
44048;SDS011;29717;47.028;15.470;2023-03-14T11:52:41;0.52;;;0.50;;
44048;SDS011;29717;47.028;15.470;2023-03-14T11:55:10;0.73;;;0.60;;
44048;SDS011;29717;47.028;15.470;2023-03-14T11:57:39;2.35;;;0.60;;
44048;SDS011;29717;47.028;15.470;2023-03-14T12:00:12;3.42;;;0.57;;
44048;SDS011;29717;47.028;15.470;2023-03-14T12:02:43;1.77;;;0.80;;
44048;SDS011;29717;47.028;15.470;2023-03-14T12:08:10;2.17;;;0.52;;
44048;SDS011;29717;47.028;15.470;2023-03-14T12:10:43;3.28;;;1.10;;
44048;SDS011;29717;47.028;15.470;2023-03-14T12:13:12;1.33;;;0.95;;
44048;SDS011;29717;47.028;15.470;2023-03-14T12:15:40;2.22;;;0.52;;
44048;SDS011;29717;47.028;15.470;2023-03-14T12:18:14;1.33;;;0.75;;
44048;SDS011;29717;47.028;15.470;2023-03-14T12:20:50;2.65;;;0.80;;
44048;SDS011;29717;47.028;15.470;2023-03-14T12:23:18;1.20;;;0.70;;
44048;SDS011;29717;47.028;15.470;2023-03-14T12:25:45;4.05;;;0.98;;
44048;SDS011;29717;47.028;15.470;2023-03-14T12:28:16;2.47;;;1.17;;
44048;SDS011;29717;47.028;15.470;2023-03-14T12:30:44;1.30;;;0.60;;
44048;SDS011;29717;47.028;15.470;2023-03-14T12:36:11;1.45;;;0.75;;
44048;SDS011;29717;47.028;15.470;2023-03-14T12:38:45;3.13;;;0.80;;
44048;SDS011;29717;47.028;15.470;2023-03-14T12:41:14;1.67;;;0.75;;
44048;SDS011;29717;47.028;15.470;2023-03-14T12:43:41;1.95;;;0.80;;
44048;SDS011;29717;47.028;15.470;2023-03-14T12:46:09;3.78;;;0.70;;
44048;SDS011;29717;47.028;15.470;2023-03-14T12:48:41;2.95;;;0.93;;
44048;SDS011;29717;47.028;15.470;2023-03-14T12:51:12;1.67;;;0.80;;
44048;SDS011;29717;47.028;15.470;2023-03-14T12:53:50;2.65;;;0.77;;
44048;SDS011;29717;47.028;15.470;2023-03-14T12:56:20;1.25;;;0.93;;
44048;SDS011;29717;47.028;15.470;2023-03-14T12:58:50;3.80;;;1.23;;
44048;SDS011;29717;47.028;15.470;2023-03-14T13:01:21;4.60;;;0.90;;
44048;SDS011;29717;47.028;15.470;2023-03-14T13:03:49;2.85;;;1.10;;
44048;SDS011;29717;47.028;15.470;2023-03-14T13:09:07;4.07;;;0.95;;
44048;SDS011;29717;47.028;15.470;2023-03-14T13:11:54;4.00;;;0.80;;
44048;SDS011;29717;47.028;15.470;2023-03-14T13:14:22;1.38;;;0.73;;
44048;SDS011;29717;47.028;15.470;2023-03-14T13:16:49;5.00;;;1.20;;
44048;SDS011;29717;47.028;15.470;2023-03-14T13:19:17;1.80;;;0.90;;
44048;SDS011;29717;47.028;15.470;2023-03-14T13:21:45;6.43;;;1.05;;
44048;SDS011;29717;47.028;15.470;2023-03-14T13:24:20;3.25;;;0.90;;
44048;SDS011;29717;47.028;15.470;2023-03-14T13:26:48;2.38;;;1.08;;
44048;SDS011;29717;47.028;15.470;2023-03-14T13:29:16;2.83;;;0.82;;
44048;SDS011;29717;47.028;15.470;2023-03-14T13:31:44;5.43;;;1.00;;
44048;SDS011;29717;47.028;15.470;2023-03-14T13:34:11;3.15;;;1.33;;
44048;SDS011;29717;47.028;15.470;2023-03-14T13:36:38;5.07;;;1.15;;
44048;SDS011;29717;47.028;15.470;2023-03-14T13:39:09;4.22;;;1.10;;
44048;SDS011;29717;47.028;15.470;2023-03-14T13:41:39;1.98;;;1.10;;
44048;SDS011;29717;47.028;15.470;2023-03-14T13:44:08;5.40;;;1.05;;
44048;SDS011;29717;47.028;15.470;2023-03-14T13:46:35;3.00;;;1.20;;
44048;SDS011;29717;47.028;15.470;2023-03-14T13:49:03;2.58;;;0.88;;
44048;SDS011;29717;47.028;15.470;2023-03-14T13:51:30;2.83;;;0.80;;
44048;SDS011;29717;47.028;15.470;2023-03-14T13:53:59;0.80;;;0.80;;
44048;SDS011;29717;47.028;15.470;2023-03-14T13:56:26;1.77;;;0.70;;
44048;SDS011;29717;47.028;15.470;2023-03-14T13:58:55;2.80;;;0.65;;
44048;SDS011;29717;47.028;15.470;2023-03-14T14:01:22;1.70;;;0.80;;
44048;SDS011;29717;47.028;15.470;2023-03-14T14:03:50;1.15;;;0.75;;
44048;SDS011;29717;47.028;15.470;2023-03-14T14:06:28;2.33;;;1.08;;
44048;SDS011;29717;47.028;15.470;2023-03-14T14:08:56;2.72;;;0.90;;
44048;SDS011;29717;47.028;15.470;2023-03-14T14:11:28;4.32;;;0.80;;
44048;SDS011;29717;47.028;15.470;2023-03-14T14:13:59;2.45;;;0.88;;
44048;SDS011;29717;47.028;15.470;2023-03-14T14:16:26;2.78;;;1.23;;
44048;SDS011;29717;47.028;15.470;2023-03-14T14:18:55;2.45;;;1.45;;
44048;SDS011;29717;47.028;15.470;2023-03-14T14:21:22;5.28;;;1.90;;
44048;SDS011;29717;47.028;15.470;2023-03-14T14:23:49;3.10;;;1.30;;
44048;SDS011;29717;47.028;15.470;2023-03-14T14:26:16;11.52;;;1.50;;
44048;SDS011;29717;47.028;15.470;2023-03-14T14:28:44;1.65;;;1.00;;
44048;SDS011;29717;47.028;15.470;2023-03-14T14:31:20;1.38;;;1.00;;
44048;SDS011;29717;47.028;15.470;2023-03-14T14:33:56;1.02;;;0.80;;
44048;SDS011;29717;47.028;15.470;2023-03-14T14:36:24;1.50;;;0.98;;
44048;SDS011;29717;47.028;15.470;2023-03-14T14:38:53;1.33;;;1.00;;
44048;SDS011;29717;47.028;15.470;2023-03-14T14:41:20;2.90;;;1.05;;
44048;SDS011;29717;47.028;15.470;2023-03-14T14:43:47;2.95;;;0.93;;
44048;SDS011;29717;47.028;15.470;2023-03-14T14:46:18;2.92;;;1.00;;
44048;SDS011;29717;47.028;15.470;2023-03-14T14:48:47;2.40;;;0.88;;